createdAt,value
2023-05-13T00:02:38.096Z,12.96
2023-05-13T00:05:41.027Z,13.00
2023-05-13T00:08:43.736Z,13.03
2023-05-13T00:11:47.974Z,13.06
2023-05-13T00:14:50.696Z,13.08
2023-05-13T00:17:53.518Z,13.09
2023-05-13T00:20:57.012Z,13.11
2023-05-13T00:23:59.679Z,13.11
2023-05-13T00:27:03.681Z,13.14
2023-05-13T00:30:08.240Z,13.10
2023-05-13T00:33:11.007Z,13.11
2023-05-13T00:36:14.413Z,13.11
2023-05-13T00:39:17.061Z,13.12
2023-05-13T00:42:21.091Z,12.98
2023-05-13T00:45:23.738Z,13.15
2023-05-13T00:48:26.824Z,13.12
2023-05-13T00:51:29.645Z,13.08
2023-05-13T00:54:32.430Z,13.04
2023-05-13T00:57:36.879Z,13.02
2023-05-13T01:00:53.436Z,12.99
2023-05-13T01:04:05.042Z,12.91
2023-05-13T01:07:14.656Z,12.89
2023-05-13T01:10:24.915Z,12.89
2023-05-13T01:13:32.940Z,12.91
2023-05-13T01:16:47.328Z,12.85
2023-05-13T01:19:55.508Z,12.86
2023-05-13T01:22:59.621Z,12.80
2023-05-13T01:26:02.428Z,12.86
2023-05-13T01:29:05.123Z,12.84
2023-05-13T01:32:09.657Z,12.80
2023-05-13T01:35:13.337Z,12.76
2023-05-13T01:38:17.984Z,12.74
2023-05-13T01:41:20.841Z,12.70
2023-05-13T01:44:23.498Z,12.70
2023-05-13T01:47:26.285Z,12.64
2023-05-13T01:50:29.013Z,12.65
2023-05-13T01:53:33.093Z,12.61
2023-05-13T01:56:36.300Z,12.55
2023-05-13T01:59:39.122Z,12.51
2023-05-13T02:02:41.951Z,12.48
2023-05-13T02:05:44.820Z,12.48
2023-05-13T02:08:48.866Z,12.48
2023-05-13T02:11:51.994Z,12.46
2023-05-13T02:14:56.906Z,12.44
2023-05-13T02:17:59.685Z,12.45
2023-05-13T02:21:02.373Z,12.44
2023-05-13T02:24:07.416Z,12.45
2023-05-13T02:27:12.599Z,12.43
2023-05-13T02:30:15.491Z,12.41
2023-05-13T02:33:18.150Z,12.41
2023-05-13T02:36:20.864Z,12.36
2023-05-13T02:39:24.884Z,12.32
2023-05-13T02:42:27.594Z,12.24
2023-05-13T02:45:30.259Z,12.27
2023-05-13T02:48:32.906Z,12.18
2023-05-13T02:51:37.743Z,12.15
2023-05-13T02:54:41.790Z,12.10
2023-05-13T02:57:44.710Z,12.04
2023-05-13T03:00:47.345Z,12.01
2023-05-13T03:03:50.493Z,11.90
2023-05-13T03:06:53.427Z,11.89
2023-05-13T03:09:57.789Z,11.90
2023-05-13T03:13:00.441Z,11.84
2023-05-13T03:16:03.685Z,11.81
2023-05-13T03:19:06.401Z,11.78
2023-05-13T03:22:09.078Z,11.75
2023-05-13T03:25:15.600Z,11.70
2023-05-13T03:28:18.298Z,11.70
2023-05-13T03:31:21.017Z,11.74
2023-05-13T03:34:23.727Z,11.71
2023-05-13T03:37:26.509Z,11.71
2023-05-13T03:40:30.622Z,11.69
2023-05-13T03:43:33.920Z,11.69
2023-05-13T03:46:36.703Z,11.70
2023-05-13T03:49:39.416Z,11.65
2023-05-13T03:52:42.495Z,11.61
2023-05-13T03:55:48.151Z,11.63
2023-05-13T03:58:50.798Z,11.59
2023-05-13T04:01:53.468Z,11.57
2023-05-13T04:04:56.463Z,11.56
2023-05-13T04:07:59.194Z,11.56
2023-05-13T04:11:06.270Z,11.58
2023-05-13T04:14:08.912Z,11.60
2023-05-13T04:17:11.677Z,11.59
2023-05-13T04:20:14.514Z,11.63
2023-05-13T04:23:17.315Z,11.61
2023-05-13T04:26:27.470Z,11.58
2023-05-13T04:29:30.181Z,11.61
2023-05-13T04:32:33.108Z,11.61
2023-05-13T04:35:35.825Z,11.65
2023-05-13T04:38:38.541Z,11.66
2023-05-13T04:41:42.785Z,11.68
2023-05-13T04:44:45.717Z,11.68
2023-05-13T04:47:48.433Z,11.72
2023-05-13T04:50:52.399Z,11.77
2023-05-13T04:53:55.513Z,11.75
2023-05-13T04:56:59.542Z,11.82
2023-05-13T05:00:02.547Z,11.90
2023-05-13T05:03:05.733Z,11.98
2023-05-13T05:06:08.634Z,12.06
2023-05-13T05:09:11.436Z,12.09
2023-05-13T05:12:15.656Z,12.14
2023-05-13T05:15:18.344Z,12.11
2023-05-13T05:18:21.063Z,12.06
2023-05-13T05:21:24.291Z,12.00
2023-05-13T05:24:27.049Z,12.01
2023-05-13T05:27:31.116Z,12.19
2023-05-13T05:30:39.414Z,12.30
2023-05-13T05:33:42.687Z,12.27
2023-05-13T05:36:45.380Z,12.31
2023-05-13T05:39:48.383Z,12.48
2023-05-13T05:42:52.474Z,12.71
2023-05-13T05:45:55.287Z,12.88
2023-05-13T05:48:58.085Z,13.06
2023-05-13T05:52:00.729Z,13.14
2023-05-13T05:55:04.126Z,13.38
2023-05-13T05:58:10.930Z,13.60
2023-05-13T06:01:13.967Z,13.87
2023-05-13T06:04:17.508Z,13.97
2023-05-13T06:07:20.277Z,14.02
2023-05-13T06:10:23.227Z,13.90
2023-05-13T06:13:27.480Z,13.66
2023-05-13T06:16:30.334Z,13.59
2023-05-13T06:19:37.546Z,13.63
2023-05-13T06:22:40.930Z,14.27
2023-05-13T06:25:43.631Z,15.17
2023-05-13T06:28:50.685Z,15.87
2023-05-13T06:31:53.515Z,16.65
2023-05-13T06:34:56.192Z,17.00
2023-05-13T06:37:58.837Z,17.25
2023-05-13T06:41:01.508Z,17.75
2023-05-13T06:44:07.413Z,18.05
2023-05-13T06:47:14.638Z,18.42
2023-05-13T06:50:17.766Z,18.48
2023-05-13T06:53:20.440Z,18.24
2023-05-13T06:56:23.937Z,17.82
2023-05-13T06:59:28.134Z,17.88
2023-05-13T07:02:31.014Z,17.72
2023-05-13T07:05:34.037Z,17.34
2023-05-13T07:08:36.814Z,17.32
2023-05-13T07:11:39.994Z,17.19
2023-05-13T07:14:45.253Z,17.16
2023-05-13T07:17:48.128Z,17.13
2023-05-13T07:20:53.264Z,17.27
2023-05-13T07:23:55.950Z,17.38
2023-05-13T07:26:58.676Z,17.74
2023-05-13T07:30:02.796Z,18.13
2023-05-13T07:33:05.905Z,18.55
2023-05-13T07:36:08.792Z,19.10
2023-05-13T07:39:12.049Z,19.47
2023-05-13T07:42:15.321Z,19.51
2023-05-13T07:45:19.484Z,19.74
2023-05-13T07:48:24.520Z,20.00
2023-05-13T07:51:27.294Z,20.09
2023-05-13T07:54:29.995Z,20.22
2023-05-13T07:57:32.906Z,20.18
2023-05-13T08:00:37.821Z,20.21
2023-05-13T08:03:41.272Z,20.05
2023-05-13T08:06:44.086Z,19.65
2023-05-13T08:09:46.872Z,19.08
2023-05-13T08:12:53.550Z,18.67
2023-05-13T08:15:57.683Z,18.34
2023-05-13T08:19:01.604Z,18.22
2023-05-13T08:22:06.833Z,18.15
2023-05-13T08:25:11.216Z,18.04
2023-05-13T08:28:14.071Z,18.00
2023-05-13T08:31:18.197Z,17.93
2023-05-13T08:34:21.049Z,17.95
2023-05-13T08:37:23.960Z,18.00
2023-05-13T08:40:26.787Z,17.97
2023-05-13T08:43:31.137Z,18.04
2023-05-13T08:46:38.123Z,18.02
2023-05-13T08:49:41.282Z,17.98
2023-05-13T08:52:44.934Z,18.05
2023-05-13T08:55:49.619Z,18.27
2023-05-13T08:58:52.363Z,18.38
2023-05-13T09:01:56.861Z,18.56
2023-05-13T09:05:03.843Z,18.68
2023-05-13T09:08:10.126Z,18.79
2023-05-13T09:11:13.066Z,18.90
2023-05-13T09:14:20.141Z,18.95
2023-05-13T09:17:24.226Z,19.02
2023-05-13T09:20:27.136Z,19.14
2023-05-13T09:23:30.353Z,19.36
2023-05-13T09:26:34.111Z,19.31
2023-05-13T09:29:37.736Z,19.39
2023-05-13T09:32:43.225Z,19.54
2023-05-13T09:35:53.823Z,19.64
2023-05-13T09:38:56.623Z,19.80
2023-05-13T09:41:59.451Z,20.04
2023-05-13T09:45:07.284Z,20.01
2023-05-13T09:48:11.501Z,20.09
2023-05-13T09:51:16.410Z,20.30
2023-05-13T09:54:19.268Z,20.32
2023-05-13T09:57:22.138Z,20.20
2023-05-13T10:00:32.175Z,20.27
2023-05-13T10:03:37.356Z,20.42
2023-05-13T10:06:40.434Z,20.63
2023-05-13T10:09:44.665Z,20.66
2023-05-13T10:12:48.600Z,20.81
2023-05-13T10:15:52.955Z,20.94
2023-05-13T10:18:58.044Z,20.99
2023-05-13T10:22:01.537Z,21.11
2023-05-13T10:25:05.114Z,21.13
2023-05-13T10:28:07.818Z,21.17
2023-05-13T10:31:10.505Z,21.28
2023-05-13T10:34:14.634Z,21.35
2023-05-13T10:37:46.786Z,21.46
2023-05-13T10:41:13.076Z,21.60
2023-05-13T10:44:15.966Z,21.67
2023-05-13T10:47:18.676Z,21.72
2023-05-13T10:50:27.099Z,21.65
2023-05-13T10:53:32.132Z,21.32
2023-05-13T10:56:34.889Z,21.15
2023-05-13T10:59:38.843Z,21.19
2023-05-13T11:02:41.757Z,21.30
2023-05-13T11:05:48.148Z,21.54
2023-05-13T11:08:55.753Z,21.50
2023-05-13T11:12:00.424Z,21.66
2023-05-13T11:15:03.186Z,21.64
2023-05-13T11:18:07.256Z,21.85
2023-05-13T11:21:11.576Z,21.83
2023-05-13T11:24:19.488Z,22.11
2023-05-13T11:27:22.398Z,22.05
2023-05-13T11:30:27.230Z,22.12
2023-05-13T11:34:10.557Z,22.34
2023-05-13T11:37:15.210Z,22.44
2023-05-13T11:40:23.540Z,22.48
2023-05-13T11:43:27.568Z,22.33
2023-05-13T11:46:30.459Z,22.32
2023-05-13T11:49:34.733Z,22.29
2023-05-13T11:52:39.243Z,22.33
2023-05-13T11:55:41.910Z,22.18
2023-05-13T11:58:44.724Z,21.94
2023-05-13T12:01:47.611Z,21.99
2023-05-13T12:04:51.688Z,22.08
2023-05-13T12:07:59.027Z,22.23
2023-05-13T12:11:01.979Z,22.40
2023-05-13T12:14:05.177Z,22.62
2023-05-13T12:17:07.987Z,22.71
2023-05-13T12:20:12.973Z,22.90
2023-05-13T12:23:17.116Z,23.21
2023-05-13T12:26:20.275Z,23.21
2023-05-13T12:29:22.937Z,23.15
2023-05-13T12:32:25.900Z,23.18
2023-05-13T12:35:28.753Z,22.94
2023-05-13T12:38:33.517Z,22.79
2023-05-13T12:41:37.270Z,22.98
2023-05-13T12:44:40.178Z,22.88
2023-05-13T12:47:49.856Z,22.51
2023-05-13T12:50:52.859Z,21.99
2023-05-13T12:53:58.329Z,22.09
2023-05-13T12:57:01.048Z,22.16
2023-05-13T13:00:04.841Z,22.01
2023-05-13T13:03:08.004Z,22.35
2023-05-13T13:06:11.878Z,22.61
2023-05-13T13:09:16.603Z,22.42
2023-05-13T13:12:19.354Z,22.37
2023-05-13T13:15:22.502Z,22.55
2023-05-13T13:18:25.750Z,22.69
2023-05-13T13:21:28.782Z,22.69
2023-05-13T13:24:32.838Z,23.03
2023-05-13T13:27:35.829Z,22.95
2023-05-13T13:30:39.342Z,23.08
2023-05-13T13:33:42.022Z,23.11
2023-05-13T13:36:45.172Z,23.29
2023-05-13T13:39:49.389Z,23.26
2023-05-13T13:42:52.143Z,23.18
2023-05-13T13:45:54.881Z,23.42
2023-05-13T13:48:57.592Z,23.29
2023-05-13T13:52:00.531Z,23.47
2023-05-13T13:55:05.243Z,23.67
2023-05-13T13:58:08.052Z,23.71
2023-05-13T14:01:10.889Z,23.61
2023-05-13T14:04:16.583Z,23.44
2023-05-13T14:07:19.262Z,23.13
2023-05-13T14:10:23.678Z,22.84
2023-05-13T14:13:26.542Z,22.03
2023-05-13T14:16:29.389Z,21.65
2023-05-13T14:19:32.324Z,21.15
2023-05-13T14:22:35.016Z,20.78
2023-05-13T14:25:39.246Z,20.50
2023-05-13T14:28:42.146Z,19.23
2023-05-13T14:31:44.851Z,18.46
2023-05-13T14:34:47.539Z,17.77
2023-05-13T14:37:50.275Z,17.69
2023-05-13T14:40:55.666Z,17.09
2023-05-13T14:43:58.355Z,16.73
2023-05-13T14:47:01.219Z,16.76
2023-05-13T14:50:04.409Z,16.87
2023-05-13T14:53:07.229Z,17.09
2023-05-13T14:56:11.381Z,17.11
2023-05-13T14:59:14.141Z,17.09
2023-05-13T15:02:17.429Z,17.35
2023-05-13T15:05:20.339Z,17.48
2023-05-13T15:08:23.322Z,17.58
2023-05-13T15:11:28.856Z,18.10
2023-05-13T15:14:31.558Z,18.32
2023-05-13T15:17:34.488Z,18.60
2023-05-13T15:20:37.212Z,18.83
2023-05-13T15:23:39.947Z,19.10
2023-05-13T15:26:44.127Z,19.50
2023-05-13T15:29:46.891Z,19.63
2023-05-13T15:32:49.737Z,19.60
2023-05-13T15:35:52.727Z,19.56
2023-05-13T15:38:55.479Z,19.44
2023-05-13T15:41:59.604Z,19.24
2023-05-13T15:45:02.642Z,19.03
2023-05-13T15:48:06.070Z,19.12
2023-05-13T15:51:09.073Z,18.98
2023-05-13T15:54:11.919Z,19.04
2023-05-13T15:57:18.147Z,19.14
2023-05-13T16:00:21.453Z,19.41
2023-05-13T16:03:24.485Z,19.40
2023-05-13T16:06:27.224Z,19.46
2023-05-13T16:09:29.872Z,19.52
2023-05-13T16:12:34.201Z,19.45
2023-05-13T16:15:37.036Z,19.47
2023-05-13T16:18:40.482Z,19.63
2023-05-13T16:21:43.232Z,19.61
2023-05-13T16:24:45.906Z,19.58
2023-05-13T16:27:49.917Z,19.62
2023-05-13T16:30:56.231Z,19.49
2023-05-13T16:34:04.084Z,19.64
2023-05-13T16:37:06.758Z,19.49
2023-05-13T16:40:11.554Z,19.29
2023-05-13T16:43:15.691Z,19.08
2023-05-13T16:46:18.333Z,18.98
2023-05-13T16:49:22.998Z,18.92
2023-05-13T16:52:26.333Z,18.83
2023-05-13T16:55:29.173Z,18.81
2023-05-13T16:58:33.160Z,18.80
2023-05-13T17:01:35.961Z,18.84
2023-05-13T17:04:38.697Z,18.93
2023-05-13T17:07:41.571Z,18.86
2023-05-13T17:10:44.341Z,18.73
2023-05-13T17:13:48.374Z,18.70
2023-05-13T17:16:52.268Z,18.63
2023-05-13T17:19:55.795Z,18.58
2023-05-13T17:23:04.509Z,18.46
2023-05-13T17:26:07.945Z,18.38
2023-05-13T17:29:13.694Z,18.28
2023-05-13T17:32:16.914Z,18.27
2023-05-13T17:35:20.306Z,18.25
2023-05-13T17:38:23.845Z,18.18
2023-05-13T17:41:27.573Z,18.21
2023-05-13T17:44:32.373Z,18.20
2023-05-13T17:47:35.569Z,18.22
2023-05-13T17:50:38.629Z,18.28
2023-05-13T17:53:41.300Z,18.38
2023-05-13T17:56:44.058Z,18.43
2023-05-13T17:59:48.123Z,18.47
2023-05-13T18:02:50.992Z,18.34
2023-05-13T18:05:53.943Z,18.17
2023-05-13T18:08:56.667Z,18.07
2023-05-13T18:11:59.334Z,17.82
2023-05-13T18:15:03.524Z,17.64
2023-05-13T18:18:06.600Z,17.56
2023-05-13T18:21:10.601Z,17.44
2023-05-13T18:24:13.369Z,17.21
2023-05-13T18:27:16.181Z,17.10
2023-05-13T18:30:20.787Z,16.98
2023-05-13T18:33:23.665Z,16.88
2023-05-13T18:36:26.556Z,16.76
2023-05-13T18:39:29.382Z,16.65
2023-05-13T18:42:32.612Z,16.54
2023-05-13T18:45:36.727Z,16.47
2023-05-13T18:48:39.558Z,16.34
2023-05-13T18:51:42.407Z,16.26
2023-05-13T18:54:45.074Z,16.16
2023-05-13T18:57:47.808Z,16.07
2023-05-13T19:00:52.508Z,15.91
2023-05-13T19:03:55.666Z,15.73
2023-05-13T19:06:58.466Z,15.73
2023-05-13T19:10:01.924Z,15.67
2023-05-13T19:13:06.714Z,15.58
2023-05-13T19:16:10.810Z,15.48
2023-05-13T19:19:13.553Z,15.39
2023-05-13T19:22:16.269Z,15.36
2023-05-13T19:25:19.177Z,15.24
2023-05-13T19:28:21.865Z,15.13
2023-05-13T19:31:26.988Z,15.07
2023-05-13T19:34:29.659Z,15.01
2023-05-13T19:37:32.306Z,14.93
2023-05-13T19:40:35.013Z,14.88
2023-05-13T19:43:37.733Z,14.70
2023-05-13T19:46:41.896Z,14.76
2023-05-13T19:49:44.599Z,14.72
2023-05-13T19:52:47.290Z,14.64
2023-05-13T19:55:50.044Z,14.58
2023-05-13T19:58:53.266Z,14.52
2023-05-13T20:01:57.702Z,14.48
2023-05-13T20:05:00.501Z,14.48
2023-05-13T20:08:03.324Z,14.51
2023-05-13T20:11:06.625Z,14.54
2023-05-13T20:14:12.365Z,14.62
2023-05-13T20:17:19.019Z,14.62
2023-05-13T20:20:22.224Z,14.57
2023-05-13T20:23:25.095Z,14.53
2023-05-13T20:26:27.881Z,14.51
2023-05-13T20:29:34.891Z,14.49
2023-05-13T20:32:39.035Z,14.47
2023-05-13T20:35:42.661Z,14.45
2023-05-13T20:38:45.325Z,14.41
2023-05-13T20:41:47.993Z,14.39
2023-05-13T20:44:50.750Z,14.39
2023-05-13T20:47:59.132Z,14.47
2023-05-13T20:51:04.706Z,14.57
2023-05-13T20:54:10.976Z,14.66
2023-05-13T20:57:13.634Z,14.71
2023-05-13T21:00:16.803Z,14.77
2023-05-13T21:03:21.160Z,14.80
2023-05-13T21:06:24.255Z,14.83
2023-05-13T21:09:26.988Z,14.86
2023-05-13T21:12:29.983Z,14.90
2023-05-13T21:15:32.760Z,14.87
2023-05-13T21:18:37.050Z,14.92
2023-05-13T21:21:39.837Z,14.75
2023-05-13T21:24:42.710Z,14.92
2023-05-13T21:27:45.948Z,14.90
2023-05-13T21:30:48.671Z,14.86
2023-05-13T21:33:52.712Z,14.87
2023-05-13T21:36:55.419Z,14.93
2023-05-13T21:39:58.208Z,14.95
2023-05-13T21:43:00.926Z,14.75
2023-05-13T21:46:03.689Z,14.48
2023-05-13T21:49:07.739Z,14.37
2023-05-13T21:52:10.655Z,14.30
2023-05-13T21:55:13.431Z,14.22
2023-05-13T21:58:18.393Z,14.17
2023-05-13T22:01:24.327Z,14.14
2023-05-13T22:04:28.591Z,14.13
2023-05-13T22:07:31.326Z,14.16
2023-05-13T22:10:34.010Z,14.17
2023-05-13T22:13:36.682Z,14.15
2023-05-13T22:16:41.602Z,14.17
2023-05-13T22:19:45.869Z,14.13
2023-05-13T22:22:48.748Z,14.11
2023-05-13T22:25:51.552Z,14.06
2023-05-13T22:28:54.371Z,13.96
2023-05-13T22:31:57.789Z,13.89
2023-05-13T22:35:01.973Z,13.81
2023-05-13T22:38:04.998Z,13.74
2023-05-13T22:41:07.688Z,13.69
2023-05-13T22:44:10.504Z,13.64
2023-05-13T22:47:13.137Z,13.44
2023-05-13T22:50:17.139Z,13.34
2023-05-13T22:53:19.828Z,13.29
2023-05-13T22:56:22.705Z,13.17
2023-05-13T22:59:26.725Z,13.13
2023-05-13T23:02:29.544Z,13.00
2023-05-13T23:05:33.749Z,12.88
2023-05-13T23:08:36.435Z,12.82
2023-05-13T23:11:39.343Z,12.82
2023-05-13T23:14:41.986Z,12.72
2023-05-13T23:17:44.761Z,12.69
2023-05-13T23:20:51.947Z,12.66
2023-05-13T23:23:54.670Z,12.62
2023-05-13T23:26:57.413Z,12.58
2023-05-13T23:30:00.275Z,12.58
2023-05-13T23:33:03.402Z,12.53
2023-05-13T23:36:08.080Z,12.50
2023-05-13T23:39:10.816Z,12.47
2023-05-13T23:42:13.523Z,12.44
2023-05-13T23:45:16.456Z,12.42
2023-05-13T23:48:19.173Z,12.38
2023-05-13T23:51:23.200Z,12.31
2023-05-13T23:54:25.917Z,12.26
2023-05-13T23:57:28.755Z,12.23
